Canal Fulton, Ohio
Current Conditions -  °F | °C
As of 5:51 PM on Friday 19 Dec 2014 (Local Time) from KCAK Reporting Station
Overcast Overcast  
Wind Chill: 24°   Ceiling: 2100
Heat Index: 30°   Visibility: 10mi
Dew Point: 23°   Wind: 6mph
Humidity: 75%   Direction: 310°NW
Pressure: 30.24"   Gusts: NA
Location:  40.89°N, 81.6°W
Report Text: KCAK 192251Z 31005KT 10SM OVC021 M01/M05 A3024 RMK AO2 SLP254 T10111050
Loading
Personal Weather Stations






























Interactive Weather Map New forecast layout! Learn more

10-Day Weather Forecast

Advertisements
Track Severe Weather on mobile